Atlanta, ID

5:58 PM MST on March 01, 2015 (GMT -0700)
RAWS WAGONTOWN ID US | Change Station
CLOSE
Current Station
Personal Weather Station
Location: Atlanta, ID
Elevation: 6171 ft
Nearby Weather Stations

Elev 6171 ft 43.57 °N, 115.33 °W | Updated 49 minutes ago

Clear
Clear
37 °F
Feels Like 34 °F
N
4
Wind Variable Wind from SSE
Gusts 8.0 mph

Today
High -- | Low -- °F
--% Chance of Precip.
Yesterday
High -- | Low -- °F
Precip. -- in
7:18 AM 6:29 PM
Waxing Gibbous, 88% visible
Pressure 30.01 in
Visibility 10.0 miles
Clouds Few 5000 ft
Windchill 34 °F
Dew Point 18 °F
Humidity 45%
Rainfall 0.09 in
Snow Depth Not available.
UV 0 out of 12
Pollen 2.60 out of 12
Air Quality Not available.
Flu Activity Not available.
METAR KSUN 020047Z 15005KT 10SM FEW050 02/M09 A3001

More Conditions Fewer Conditions

Pressure 30.01 in
Visibility 10.0 miles
Clouds Few 5000 ft
Windchill 34 °F
Dew Point 18 °F
Humidity 45%
Rainfall 0.09 in
Snow Depth Not available.
UV 0 out of 12
Pollen 2.60 out of 12
Air Quality Not available.
Flu Activity Not available.
METAR KSUN 020047Z 15005KT 10SM FEW050 02/M09 A3001

More Conditions Fewer Conditions

10-Day Weather Forecast

Almanac

Astronomy

Mar. 01, 2015 Rise Set
Actual Time
Civil Twilight
Nautical Twilight
Astronomical Twilight
Moon
Length of Visible Light
Length of Day
Tomorrow will be .
, % of the Moon is Illuminated

Today's Extremes

State Highs State Lows

Community

WunderPhotos

Upload Photos

1,801,659 photos uploaded!

WunderBlogs® & News

Nearby

Air Quality

  Air Quality AQ Index Pollutant
Not available.

Snow Depth

Station Depth Elevation

Earthquake Activity

City Distance Mag. Time & Date
Minimum magnitude displayed is 2.5.

Coastal Water Temperatures

Place Temperature

Nearby Weather Stations